createdAt,value
2017-08-29T00:01:04.960Z,0
2017-08-29T00:02:17.673Z,0
2017-08-29T00:03:30.899Z,0
2017-08-29T00:04:43.552Z,0
2017-08-29T00:05:56.723Z,0
2017-08-29T00:07:09.895Z,0
2017-08-29T00:08:23.101Z,0
2017-08-29T00:09:36.271Z,0
2017-08-29T00:10:48.933Z,0
2017-08-29T00:12:01.598Z,0
2017-08-29T00:13:14.253Z,0
2017-08-29T00:14:27.422Z,0
2017-08-29T00:15:40.619Z,0
2017-08-29T00:16:53.829Z,0
2017-08-29T00:18:06.514Z,0
2017-08-29T00:19:19.185Z,0
2017-08-29T00:20:31.879Z,0
2017-08-29T00:21:44.087Z,0
2017-08-29T00:22:56.792Z,0
2017-08-29T00:24:08.989Z,0
2017-08-29T00:25:21.624Z,0
2017-08-29T00:26:34.787Z,0
2017-08-29T00:27:47.989Z,0
2017-08-29T00:29:01.184Z,0
2017-08-29T00:30:14.398Z,0
2017-08-29T00:31:26.547Z,0
2017-08-29T00:32:39.244Z,0
2017-08-29T00:33:52.476Z,0
2017-08-29T00:35:05.642Z,0
2017-08-29T00:36:18.878Z,0
2017-08-29T00:37:32.082Z,0
2017-08-29T00:38:45.255Z,0
2017-08-29T00:39:58.446Z,0
2017-08-29T00:41:10.620Z,0
2017-08-29T00:42:23.821Z,0
2017-08-29T00:43:36.476Z,0
2017-08-29T00:44:49.678Z,0
2017-08-29T00:46:02.363Z,0
2017-08-29T00:47:14.561Z,0
2017-08-29T00:48:27.787Z,0
2017-08-29T00:49:40.448Z,0
2017-08-29T00:50:53.122Z,0
2017-08-29T00:52:05.789Z,0
2017-08-29T00:53:18.077Z,0
2017-08-29T00:54:30.766Z,0
2017-08-29T00:55:43.444Z,0
2017-08-29T00:56:56.646Z,0
2017-08-29T00:58:08.750Z,0
2017-08-29T00:59:21.973Z,0
2017-08-29T01:00:34.646Z,0
2017-08-29T01:01:47.884Z,0
2017-08-29T01:03:01.108Z,0
2017-08-29T01:04:13.800Z,0
2017-08-29T01:05:27.004Z,0
2017-08-29T01:06:39.668Z,0
2017-08-29T01:07:52.337Z,0
2017-08-29T01:09:05.537Z,0
2017-08-29T01:10:18.212Z,0
2017-08-29T01:11:30.381Z,0
2017-08-29T01:12:43.062Z,0
2017-08-29T01:13:55.747Z,0
2017-08-29T01:15:08.431Z,0
2017-08-29T01:16:21.078Z,0
2017-08-29T01:17:34.271Z,0
2017-08-29T01:18:48.087Z,0
2017-08-29T01:20:01.280Z,0
2017-08-29T01:21:14.463Z,0
2017-08-29T01:22:27.626Z,0
2017-08-29T01:23:40.867Z,0
2017-08-29T01:24:53.028Z,0
2017-08-29T01:26:06.233Z,0
2017-08-29T01:27:18.384Z,0
2017-08-29T01:28:31.576Z,0
2017-08-29T01:29:44.291Z,0
2017-08-29T01:30:56.961Z,0
2017-08-29T01:32:10.129Z,0
2017-08-29T01:33:22.867Z,0
2017-08-29T01:34:36.077Z,0
2017-08-29T01:35:49.259Z,0
2017-08-29T01:37:02.452Z,0
2017-08-29T01:38:15.658Z,0
2017-08-29T01:39:28.894Z,0
2017-08-29T01:40:42.097Z,0
2017-08-29T01:41:54.244Z,0
2017-08-29T01:43:06.406Z,0
2017-08-29T01:44:18.048Z,0
2017-08-29T01:45:31.241Z,0
2017-08-29T01:46:43.913Z,0
2017-08-29T01:47:56.593Z,0
2017-08-29T01:49:09.243Z,0
2017-08-29T01:50:21.899Z,0
2017-08-29T01:51:34.554Z,0
2017-08-29T01:52:47.192Z,0
2017-08-29T01:53:59.353Z,0
2017-08-29T01:55:12.000Z,0
2017-08-29T01:56:23.632Z,0
2017-08-29T01:57:36.806Z,0
2017-08-29T01:58:50.023Z,0
2017-08-29T02:00:03.217Z,0
2017-08-29T02:01:15.890Z,0
2017-08-29T02:02:28.542Z,0
2017-08-29T02:03:41.216Z,0
2017-08-29T02:04:53.912Z,0
2017-08-29T02:06:07.129Z,0
2017-08-29T02:07:19.799Z,0
2017-08-29T02:08:32.981Z,0
2017-08-29T02:09:45.656Z,0
2017-08-29T02:10:58.837Z,0
2017-08-29T02:12:11.011Z,0
2017-08-29T02:13:24.187Z,0
2017-08-29T02:14:37.361Z,0
2017-08-29T02:15:50.016Z,0
2017-08-29T02:17:03.242Z,0
2017-08-29T02:18:15.924Z,0
2017-08-29T02:19:29.113Z,0
2017-08-29T02:20:41.270Z,0
2017-08-29T02:21:54.453Z,0
2017-08-29T02:23:07.671Z,0
2017-08-29T02:24:20.319Z,0
2017-08-29T02:25:33.543Z,0
2017-08-29T02:26:46.731Z,0
2017-08-29T02:27:59.942Z,0
2017-08-29T02:29:13.113Z,0
2017-08-29T02:30:25.275Z,0
2017-08-29T02:31:38.484Z,0
2017-08-29T02:32:51.681Z,0
2017-08-29T02:34:03.395Z,0
2017-08-29T02:35:16.564Z,0
2017-08-29T02:36:29.773Z,0
2017-08-29T02:37:42.933Z,0
2017-08-29T02:38:56.143Z,0
2017-08-29T02:40:08.806Z,0
2017-08-29T02:41:20.918Z,0
2017-08-29T02:42:33.552Z,0
2017-08-29T02:43:46.242Z,0
2017-08-29T02:44:58.924Z,0
2017-08-29T02:46:12.135Z,0
2017-08-29T02:47:24.844Z,0
2017-08-29T02:48:38.087Z,0
2017-08-29T02:49:51.317Z,0
2017-08-29T02:51:04.521Z,0
2017-08-29T02:52:17.194Z,0
2017-08-29T02:53:30.401Z,0
2017-08-29T02:54:43.101Z,0
2017-08-29T02:55:56.318Z,0
2017-08-29T02:57:09.021Z,0
2017-08-29T02:58:21.187Z,0
2017-08-29T02:59:33.865Z,0
2017-08-29T03:00:47.082Z,0
2017-08-29T03:01:59.729Z,0
2017-08-29T03:03:12.904Z,0
2017-08-29T03:04:25.585Z,0
2017-08-29T03:05:38.807Z,0
2017-08-29T03:06:52.070Z,0
2017-08-29T03:08:04.239Z,0
2017-08-29T03:09:16.928Z,0
2017-08-29T03:10:29.570Z,0
2017-08-29T03:11:42.750Z,0
2017-08-29T03:12:55.970Z,0
2017-08-29T03:14:08.648Z,0
2017-08-29T03:15:21.338Z,0
2017-08-29T03:16:34.515Z,0
2017-08-29T03:17:47.204Z,0
2017-08-29T03:19:00.412Z,0
2017-08-29T03:20:13.662Z,0
2017-08-29T03:21:26.862Z,0
2017-08-29T03:22:38.979Z,0
2017-08-29T03:23:51.668Z,0
2017-08-29T03:25:04.336Z,0
2017-08-29T03:26:16.990Z,0
2017-08-29T03:27:29.714Z,0
2017-08-29T03:28:42.408Z,0
2017-08-29T03:29:55.604Z,0
2017-08-29T03:31:08.813Z,0
2017-08-29T03:32:21.480Z,0
2017-08-29T03:33:34.710Z,0
2017-08-29T03:34:46.891Z,0
2017-08-29T03:35:59.047Z,0
2017-08-29T03:37:10.698Z,0
2017-08-29T03:38:23.387Z,0
2017-08-29T03:39:36.077Z,0
2017-08-29T03:40:49.283Z,0
2017-08-29T03:42:01.968Z,0
2017-08-29T03:43:15.168Z,0
2017-08-29T03:44:28.398Z,0
2017-08-29T03:45:41.103Z,0
2017-08-29T03:46:53.759Z,0
2017-08-29T03:48:06.981Z,0
2017-08-29T03:49:20.171Z,0
2017-08-29T03:50:32.819Z,0
2017-08-29T03:51:46.018Z,0
2017-08-29T03:52:58.713Z,0
2017-08-29T03:54:11.883Z,0
2017-08-29T03:55:24.523Z,0
2017-08-29T03:56:37.649Z,0
2017-08-29T03:57:50.811Z,0
2017-08-29T03:59:04.020Z,0
2017-08-29T04:00:16.192Z,0
2017-08-29T04:01:28.359Z,0
2017-08-29T04:02:40.503Z,0
2017-08-29T04:03:52.670Z,0
2017-08-29T04:05:05.347Z,0
2017-08-29T04:06:17.490Z,0
2017-08-29T04:07:30.693Z,0
2017-08-29T04:08:43.858Z,0
2017-08-29T04:09:57.093Z,0
2017-08-29T04:11:09.795Z,0
2017-08-29T04:12:22.530Z,0
2017-08-29T04:13:34.693Z,0
2017-08-29T04:14:47.916Z,0
2017-08-29T04:16:01.145Z,0
2017-08-29T04:17:13.792Z,0
2017-08-29T04:18:26.462Z,0
2017-08-29T04:19:39.673Z,0
2017-08-29T04:20:52.310Z,0
2017-08-29T04:22:05.497Z,0
2017-08-29T04:23:18.729Z,0
2017-08-29T04:24:31.979Z,0
2017-08-29T04:25:44.672Z,0
2017-08-29T04:26:57.368Z,0
2017-08-29T04:28:10.552Z,0
2017-08-29T04:29:23.755Z,0
2017-08-29T04:30:36.421Z,0
2017-08-29T04:31:49.126Z,0
2017-08-29T04:33:01.793Z,0
2017-08-29T04:34:14.991Z,0
2017-08-29T04:35:28.166Z,0
2017-08-29T04:36:41.376Z,0
2017-08-29T04:37:54.574Z,0
2017-08-29T04:39:07.763Z,0
2017-08-29T04:40:20.931Z,0
2017-08-29T04:41:33.625Z,0
2017-08-29T04:42:46.805Z,0
2017-08-29T04:43:59.505Z,0
2017-08-29T04:45:12.686Z,0
2017-08-29T04:46:25.888Z,0
2017-08-29T04:47:39.062Z,0
2017-08-29T04:48:51.767Z,0
2017-08-29T04:50:04.441Z,0
2017-08-29T04:51:17.130Z,0
2017-08-29T04:52:30.314Z,0
2017-08-29T04:53:43.563Z,0
2017-08-29T04:54:56.241Z,0
2017-08-29T04:56:09.426Z,0
2017-08-29T04:57:22.093Z,0
2017-08-29T04:58:34.781Z,0
2017-08-29T04:59:47.431Z,0
2017-08-29T05:01:00.613Z,0
2017-08-29T05:02:13.288Z,0
2017-08-29T05:03:25.972Z,0
2017-08-29T05:04:39.134Z,0
2017-08-29T05:05:51.787Z,0
2017-08-29T05:38:08.177Z,0
2017-08-29T05:39:21.392Z,0
2017-08-29T05:40:34.110Z,0
2017-08-29T05:41:47.303Z,0
2017-08-29T05:43:00.497Z,0
2017-08-29T05:44:13.699Z,0
2017-08-29T05:45:26.865Z,0
2017-08-29T05:46:40.037Z,0
2017-08-29T05:47:52.743Z,0
2017-08-29T05:49:05.937Z,0
2017-08-29T05:50:19.175Z,0
2017-08-29T05:51:32.362Z,0
2017-08-29T05:52:45.543Z,0
2017-08-29T05:53:58.229Z,0
2017-08-29T05:55:10.886Z,0
2017-08-29T05:56:23.554Z,0
2017-08-29T05:57:36.756Z,0
2017-08-29T05:58:49.947Z,0
2017-08-29T06:00:03.145Z,0
2017-08-29T06:01:16.325Z,0
2017-08-29T06:02:29.531Z,0
2017-08-29T06:03:42.732Z,0
2017-08-29T06:04:55.442Z,0
2017-08-29T06:06:08.088Z,0
2017-08-29T06:07:21.256Z,0
2017-08-29T06:08:34.463Z,0
2017-08-29T06:09:47.673Z,0
2017-08-29T06:11:00.866Z,0
2017-08-29T06:12:13.062Z,0
2017-08-29T06:13:25.722Z,0
2017-08-29T06:14:38.922Z,0
2017-08-29T06:15:52.050Z,0
2017-08-29T06:17:05.232Z,0
2017-08-29T06:18:18.390Z,0
2017-08-29T06:19:31.072Z,0
2017-08-29T06:20:43.746Z,0
2017-08-29T06:21:56.403Z,0
2017-08-29T06:23:09.080Z,0
2017-08-29T06:24:22.258Z,0
2017-08-29T06:25:35.421Z,0
2017-08-29T06:26:48.120Z,0
2017-08-29T06:28:01.290Z,0
2017-08-29T06:29:13.983Z,0
2017-08-29T06:30:26.673Z,0
2017-08-29T06:31:39.352Z,0
2017-08-29T06:32:52.532Z,0
2017-08-29T06:34:05.240Z,0
2017-08-29T06:35:17.416Z,0
2017-08-29T06:36:30.598Z,0
2017-08-29T06:37:43.788Z,0
2017-08-29T06:38:56.472Z,0
2017-08-29T06:40:09.179Z,0
2017-08-29T06:41:21.863Z,0
2017-08-29T06:42:35.074Z,0
2017-08-29T06:43:48.252Z,0
2017-08-29T06:45:00.923Z,0
2017-08-29T06:46:14.121Z,0
2017-08-29T06:47:27.293Z,0
2017-08-29T06:48:40.463Z,0
2017-08-29T06:49:52.607Z,0
2017-08-29T06:51:05.814Z,0
2017-08-29T06:52:18.479Z,0
2017-08-29T06:53:31.680Z,0
2017-08-29T06:54:44.884Z,0
2017-08-29T06:55:57.514Z,0
2017-08-29T06:57:10.694Z,0
2017-08-29T06:58:24.064Z,0
2017-08-29T06:59:37.279Z,0
2017-08-29T07:00:50.478Z,0
2017-08-29T07:02:03.160Z,0
2017-08-29T07:03:15.847Z,0
2017-08-29T07:04:28.549Z,0
2017-08-29T07:05:41.741Z,0
2017-08-29T07:06:54.386Z,0
2017-08-29T07:08:07.064Z,0
2017-08-29T07:09:20.222Z,0
2017-08-29T07:10:32.893Z,0
2017-08-29T07:11:46.095Z,0
2017-08-29T07:12:58.246Z,0
2017-08-29T07:14:10.963Z,0
2017-08-29T07:15:23.133Z,0
2017-08-29T07:16:35.412Z,0
2017-08-29T07:17:48.602Z,0
2017-08-29T07:19:01.804Z,0
2017-08-29T07:20:14.491Z,0
2017-08-29T07:21:27.160Z,0
2017-08-29T07:22:40.353Z,0
2017-08-29T07:23:53.004Z,0
2017-08-29T07:25:06.189Z,0
2017-08-29T07:26:18.849Z,0
2017-08-29T07:27:31.508Z,0
2017-08-29T07:28:44.690Z,0
2017-08-29T07:29:57.906Z,0
2017-08-29T07:31:11.098Z,0
2017-08-29T07:32:24.264Z,0
2017-08-29T07:33:37.456Z,0
2017-08-29T07:34:50.655Z,0
2017-08-29T07:36:03.847Z,0
2017-08-29T07:37:16.487Z,0
2017-08-29T07:38:29.123Z,0
2017-08-29T07:39:42.323Z,0
2017-08-29T07:40:55.463Z,0
2017-08-29T07:42:08.619Z,0
2017-08-29T07:43:21.320Z,0
2017-08-29T07:44:33.984Z,0
2017-08-29T07:45:47.140Z,0
2017-08-29T07:47:00.300Z,0
2017-08-29T07:48:12.979Z,0
2017-08-29T07:49:26.166Z,0
2017-08-29T07:50:39.347Z,0
2017-08-29T07:51:51.536Z,0
2017-08-29T07:53:03.697Z,0
2017-08-29T07:54:16.883Z,0
2017-08-29T07:55:29.562Z,0
2017-08-29T07:56:42.744Z,0
2017-08-29T07:57:55.972Z,0
2017-08-29T07:59:08.661Z,0
2017-08-29T08:00:21.354Z,0
2017-08-29T08:01:34.562Z,0
2017-08-29T08:02:47.236Z,0
2017-08-29T08:03:59.916Z,0
2017-08-29T08:05:13.116Z,0
2017-08-29T08:06:26.302Z,0
2017-08-29T08:07:39.502Z,0
2017-08-29T08:08:52.731Z,0
2017-08-29T08:10:05.939Z,0
2017-08-29T08:11:19.163Z,0
2017-08-29T08:12:32.346Z,0
2017-08-29T08:13:45.519Z,0
2017-08-29T08:14:58.737Z,0
2017-08-29T08:16:11.949Z,0
2017-08-29T08:17:24.105Z,0
2017-08-29T08:18:37.320Z,0
2017-08-29T08:19:49.974Z,0
2017-08-29T08:21:02.628Z,0
2017-08-29T08:22:15.310Z,0
2017-08-29T08:23:28.494Z,0
2017-08-29T08:24:41.161Z,0
2017-08-29T08:25:54.308Z,0
2017-08-29T08:27:07.468Z,0
2017-08-29T08:28:20.635Z,0
2017-08-29T08:29:33.330Z,0
2017-08-29T08:30:46.570Z,0
2017-08-29T08:31:58.716Z,0
2017-08-29T08:33:11.888Z,0
2017-08-29T08:34:24.574Z,0
2017-08-29T08:35:37.238Z,0
2017-08-29T08:36:49.925Z,0
2017-08-29T08:38:03.102Z,0
2017-08-29T08:39:16.271Z,0
2017-08-29T08:40:29.450Z,0
2017-08-29T08:41:42.627Z,0
2017-08-29T08:42:55.299Z,0
2017-08-29T08:44:07.968Z,0
2017-08-29T08:45:21.181Z,0
2017-08-29T08:46:34.357Z,0
2017-08-29T08:47:46.014Z,0
2017-08-29T08:48:58.722Z,0
2017-08-29T08:50:10.865Z,0
2017-08-29T08:51:24.054Z,0
2017-08-29T08:52:37.233Z,0
2017-08-29T08:53:49.884Z,4
2017-08-29T08:55:02.567Z,0
2017-08-29T08:56:14.732Z,4
2017-08-29T08:57:27.374Z,4
2017-08-29T08:58:40.035Z,4
2017-08-29T08:59:52.688Z,8
2017-08-29T09:01:05.869Z,12
2017-08-29T09:02:19.038Z,12
2017-08-29T09:03:31.726Z,20
2017-08-29T09:04:44.447Z,28
2017-08-29T09:05:57.654Z,36
2017-08-29T09:07:10.866Z,52
2017-08-29T09:08:24.091Z,64
2017-08-29T09:09:37.311Z,84
2017-08-29T09:10:49.948Z,112
2017-08-29T09:12:02.630Z,140
2017-08-29T09:13:15.849Z,176
2017-08-29T09:14:29.058Z,216
2017-08-29T09:15:42.247Z,264
2017-08-29T09:16:54.941Z,320
2017-08-29T09:18:07.617Z,384
2017-08-29T09:19:20.295Z,448
2017-08-29T09:20:33.493Z,528
2017-08-29T09:21:46.664Z,612
2017-08-29T09:22:59.393Z,708
2017-08-29T09:24:12.586Z,812
2017-08-29T09:25:25.252Z,928
2017-08-29T09:26:37.899Z,1048
2017-08-29T09:27:51.099Z,1180
2017-08-29T09:29:35.466Z,1388
2017-08-29T09:30:48.641Z,1548
2017-08-29T09:32:01.297Z,1716
2017-08-29T09:33:13.971Z,1900
2017-08-29T09:34:27.195Z,2096
2017-08-29T09:35:40.405Z,2304
2017-08-29T09:36:53.076Z,2524
2017-08-29T09:38:06.255Z,2760
2017-08-29T09:39:18.424Z,3012
2017-08-29T09:40:31.667Z,3284
2017-08-29T09:41:43.878Z,3560
2017-08-29T09:42:57.066Z,3856
2017-08-29T09:44:09.249Z,4164
2017-08-29T09:45:22.444Z,4496
2017-08-29T09:46:35.601Z,4856
2017-08-29T09:47:48.256Z,5184
2017-08-29T09:49:00.944Z,5512
2017-08-29T09:50:14.135Z,5864
2017-08-29T09:51:26.803Z,6248
2017-08-29T09:52:39.981Z,6704
2017-08-29T09:53:53.176Z,7112
2017-08-29T09:55:05.341Z,7444
2017-08-29T09:56:18.557Z,7940
2017-08-29T09:57:31.248Z,8456
2017-08-29T09:58:43.422Z,8924
2017-08-29T09:59:56.058Z,9456
2017-08-29T10:01:08.227Z,10216
2017-08-29T10:02:21.396Z,10652
2017-08-29T10:03:34.576Z,11244
2017-08-29T10:04:47.231Z,11888
2017-08-29T10:06:00.438Z,11888
2017-08-29T10:07:13.592Z,12132
2017-08-29T10:08:26.275Z,12416
2017-08-29T10:09:39.461Z,13028
2017-08-29T10:10:52.131Z,13984
2017-08-29T10:12:05.342Z,14848
2017-08-29T10:13:18.053Z,14912
2017-08-29T10:14:30.771Z,15264
2017-08-29T10:15:43.982Z,16576
2017-08-29T10:16:57.257Z,16640
2017-08-29T10:18:10.531Z,16480
2017-08-29T10:19:54.973Z,17184
2017-08-29T10:21:08.205Z,17632
2017-08-29T10:22:21.724Z,17696
2017-08-29T10:23:34.456Z,17664
2017-08-29T10:24:48.158Z,19104
2017-08-29T10:26:01.869Z,20000
2017-08-29T10:27:15.325Z,20960
2017-08-29T10:28:28.249Z,21248
2017-08-29T10:29:41.493Z,21632
2017-08-29T10:30:54.735Z,22784
2017-08-29T10:32:07.947Z,23904
2017-08-29T10:33:21.172Z,24640
2017-08-29T10:34:34.401Z,25600
2017-08-29T10:35:47.608Z,27168
2017-08-29T10:37:00.836Z,28448
2017-08-29T10:38:13.033Z,28672
2017-08-29T10:39:25.288Z,28576
2017-08-29T10:40:38.483Z,29984
2017-08-29T10:42:53.543Z,31968
2017-08-29T10:44:06.816Z,31584
2017-08-29T10:45:20.106Z,30496
2017-08-29T10:46:33.343Z,29408
2017-08-29T10:47:46.630Z,28800
2017-08-29T10:48:59.730Z,28864
2017-08-29T10:50:12.616Z,29312
2017-08-29T10:51:25.971Z,29568
2017-08-29T10:52:39.172Z,30144
2017-08-29T10:53:52.629Z,31168
2017-08-29T10:55:05.456Z,31328
2017-08-29T10:56:18.894Z,31616
2017-08-29T10:57:32.171Z,32096
2017-08-29T10:58:44.922Z,33344
2017-08-29T10:59:58.302Z,34624
2017-08-29T11:01:11.759Z,35360
2017-08-29T11:02:24.894Z,33504
2017-08-29T11:03:38.775Z,33344
2017-08-29T11:04:51.681Z,36160
2017-08-29T11:06:04.975Z,36448
2017-08-29T11:07:18.769Z,37664
2017-08-29T11:08:32.498Z,40128
2017-08-29T11:09:45.367Z,39136
2017-08-29T11:10:58.393Z,42880
2017-08-29T11:12:11.603Z,45824
2017-08-29T11:13:24.818Z,44224
2017-08-29T11:14:36.925Z,44608
2017-08-29T11:15:50.202Z,44896
2017-08-29T11:17:02.996Z,45920
2017-08-29T11:18:16.626Z,47136
2017-08-29T11:19:29.882Z,45440
2017-08-29T11:20:42.258Z,48544
2017-08-29T11:21:55.835Z,49376
2017-08-29T11:23:08.724Z,44512
2017-08-29T11:24:22.077Z,45216
2017-08-29T11:25:35.230Z,50848
2017-08-29T11:26:46.385Z,50560
2017-08-29T11:27:59.618Z,50912
2017-08-29T11:29:12.858Z,52192
2017-08-29T11:30:26.231Z,56352
2017-08-29T11:31:39.440Z,54976
2017-08-29T11:32:51.907Z,54336
2017-08-29T11:34:05.530Z,53696
2017-08-29T11:35:17.892Z,46176
2017-08-29T11:36:30.645Z,43264
2017-08-29T11:37:42.817Z,44160
2017-08-29T11:38:55.166Z,45184
2017-08-29T11:40:08.658Z,46336
2017-08-29T11:41:21.825Z,41888
2017-08-29T11:42:34.681Z,41504
2017-08-29T11:43:47.002Z,43008
2017-08-29T11:44:59.819Z,41824
2017-08-29T11:46:11.985Z,41120
2017-08-29T11:47:25.262Z,38496
2017-08-29T11:48:38.494Z,39360
2017-08-29T11:49:51.197Z,39392
2017-08-29T11:51:04.712Z,37536
2017-08-29T11:52:17.463Z,38016
2017-08-29T11:53:30.165Z,37536
2017-08-29T11:54:42.329Z,37216
2017-08-29T11:55:54.560Z,37504
2017-08-29T11:57:07.290Z,37792
2017-08-29T11:58:20.493Z,37728
2017-08-29T11:59:33.245Z,37792
2017-08-29T12:00:45.502Z,37056
2017-08-29T12:01:58.753Z,37024
2017-08-29T12:03:12.267Z,37472
2017-08-29T12:04:25.204Z,37632
2017-08-29T12:05:38.470Z,37056
2017-08-29T12:06:51.788Z,37120
2017-08-29T12:08:04.989Z,37376
2017-08-29T12:09:18.174Z,37120
2017-08-29T12:10:31.396Z,37600
2017-08-29T12:11:44.083Z,36960
2017-08-29T12:12:56.945Z,37888
2017-08-29T12:14:09.161Z,37856
2017-08-29T12:15:22.586Z,38176
2017-08-29T12:16:34.764Z,38368
2017-08-29T12:17:47.984Z,37984
2017-08-29T12:19:01.344Z,38496
2017-08-29T12:20:14.070Z,39712
2017-08-29T12:21:27.334Z,40064
2017-08-29T12:22:40.196Z,40896
2017-08-29T12:23:53.426Z,42752
2017-08-29T12:25:06.733Z,45568
2017-08-29T12:26:18.952Z,49984
2017-08-29T12:27:31.975Z,48288
2017-08-29T12:28:45.448Z,46944
2017-08-29T12:29:57.666Z,43296
2017-08-29T12:31:09.865Z,41600
2017-08-29T12:32:22.555Z,45024
2017-08-29T12:33:34.755Z,49376
2017-08-29T12:34:47.450Z,43968
2017-08-29T12:36:00.160Z,42944
2017-08-29T12:37:13.087Z,42496
2017-08-29T12:38:25.940Z,42400
2017-08-29T12:39:38.018Z,41664
2017-08-29T12:40:50.261Z,41728
2017-08-29T12:42:03.221Z,42016
2017-08-29T12:43:15.698Z,41760
2017-08-29T12:44:28.381Z,41152
2017-08-29T12:45:40.604Z,41184
2017-08-29T12:46:52.774Z,41696
2017-08-29T12:48:04.434Z,41408
2017-08-29T12:49:17.793Z,41664
2017-08-29T12:50:30.451Z,42336
2017-08-29T12:51:44.323Z,41728
2017-08-29T13:08:13.272Z,42816
2017-08-29T13:09:25.457Z,42848
2017-08-29T13:10:37.624Z,42464
2017-08-29T13:11:49.801Z,42816
2017-08-29T13:13:03.045Z,43008
2017-08-29T13:14:16.264Z,43232
2017-08-29T13:15:29.488Z,42976
2017-08-29T13:16:42.679Z,42528
2017-08-29T13:17:55.400Z,43104
2017-08-29T13:19:08.605Z,42816
2017-08-29T13:20:21.289Z,43168
2017-08-29T13:21:33.997Z,43712
2017-08-29T13:22:46.212Z,43424
2017-08-29T13:23:58.401Z,43008
2017-08-29T13:25:11.626Z,43552
2017-08-29T13:26:24.343Z,43872
2017-08-29T13:27:37.060Z,43264
2017-08-29T13:28:49.740Z,43584
2017-08-29T13:30:01.390Z,44448
2017-08-29T13:31:13.574Z,43808
2017-08-29T13:32:25.727Z,43936
2017-08-29T13:33:38.913Z,44064
2017-08-29T13:34:52.148Z,44000
2017-08-29T13:36:05.349Z,44256
2017-08-29T13:37:17.538Z,44160
2017-08-29T13:38:30.737Z,44032
2017-08-29T13:39:43.411Z,44192
2017-08-29T13:40:56.576Z,44448
2017-08-29T13:42:08.245Z,44256
2017-08-29T13:43:20.405Z,44896
2017-08-29T13:44:33.634Z,45088
2017-08-29T13:45:46.816Z,44928
2017-08-29T13:46:59.045Z,45216
2017-08-29T13:48:11.736Z,43968
2017-08-29T13:49:23.418Z,44448
2017-08-29T13:50:36.601Z,44736
2017-08-29T13:51:50.334Z,44704
2017-08-29T13:53:03.818Z,44224
2017-08-29T13:54:15.804Z,44864
2017-08-29T13:55:29.292Z,45408
2017-08-29T13:56:41.990Z,44768
2017-08-29T13:57:54.697Z,45632
2017-08-29T13:59:07.399Z,45600
2017-08-29T14:00:20.140Z,45120
2017-08-29T14:01:32.331Z,45280
2017-08-29T14:02:45.056Z,44704
2017-08-29T14:03:57.771Z,45152
2017-08-29T14:05:10.983Z,45184
2017-08-29T14:06:24.227Z,45376
2017-08-29T14:07:36.430Z,45184
2017-08-29T14:08:50.143Z,45440
2017-08-29T14:10:02.855Z,45408
2017-08-29T14:11:15.572Z,45888
2017-08-29T14:12:28.287Z,45600
2017-08-29T14:13:41.061Z,45248
2017-08-29T14:14:53.757Z,45408
2017-08-29T14:16:06.445Z,45664
2017-08-29T14:17:19.133Z,45248
2017-08-29T14:18:31.342Z,45184
2017-08-29T14:19:44.449Z,45184
2017-08-29T14:20:57.655Z,45056
2017-08-29T14:22:09.864Z,45600
2017-08-29T14:23:22.537Z,45504
2017-08-29T14:24:35.212Z,45248
2017-08-29T14:25:48.504Z,45248
2017-08-29T14:27:00.672Z,46112
2017-08-29T14:28:13.399Z,45728
2017-08-29T14:29:26.589Z,45728
2017-08-29T14:30:38.800Z,45184
2017-08-29T14:31:52.046Z,46432
2017-08-29T14:33:04.234Z,46464
2017-08-29T14:34:17.489Z,45888
2017-08-29T14:35:29.663Z,46336
2017-08-29T14:36:41.807Z,45696
2017-08-29T14:37:54.534Z,45824
2017-08-29T14:39:07.764Z,46016
2017-08-29T14:40:19.433Z,46464
2017-08-29T14:41:31.605Z,46176
2017-08-29T14:42:44.816Z,46464
2017-08-29T14:43:57.505Z,46176
2017-08-29T14:45:10.201Z,46240
2017-08-29T14:46:22.887Z,46400
2017-08-29T14:47:36.687Z,45856
2017-08-29T14:48:48.887Z,45984
2017-08-29T14:50:01.559Z,46304
2017-08-29T14:51:14.271Z,46592
2017-08-29T14:52:27.582Z,46368
2017-08-29T14:53:40.254Z,46400
2017-08-29T14:54:53.474Z,46656
2017-08-29T14:56:06.678Z,46944
2017-08-29T14:57:19.897Z,47040
2017-08-29T14:58:32.565Z,47104
2017-08-29T14:59:45.271Z,47200
2017-08-29T15:00:58.466Z,47200
2017-08-29T15:02:11.162Z,47104
2017-08-29T15:03:22.326Z,47008
2017-08-29T15:04:35.133Z,47168
2017-08-29T15:05:48.364Z,47648
2017-08-29T15:07:01.670Z,47392
2017-08-29T15:08:16.067Z,47104
2017-08-29T15:09:29.923Z,47168
2017-08-29T15:10:42.614Z,47456
2017-08-29T15:11:55.327Z,47424
2017-08-29T15:13:07.524Z,47424
2017-08-29T15:14:20.750Z,47072
2017-08-29T15:15:33.979Z,46976
2017-08-29T15:16:47.365Z,47168
2017-08-29T15:18:01.252Z,47072
2017-08-29T15:19:14.019Z,47360
2017-08-29T15:20:27.237Z,47520
2017-08-29T15:21:39.929Z,47616
2017-08-29T15:22:51.636Z,47584
2017-08-29T15:24:05.527Z,47584
2017-08-29T15:25:18.854Z,47648
2017-08-29T15:26:31.569Z,47648
2017-08-29T15:27:44.261Z,47232
2017-08-29T15:28:57.459Z,47712
2017-08-29T15:30:10.667Z,47776
2017-08-29T15:31:23.845Z,47712
2017-08-29T15:32:37.056Z,47680
2017-08-29T15:33:50.377Z,48576
2017-08-29T15:35:03.094Z,51072
2017-08-29T15:36:15.781Z,54304
2017-08-29T15:37:28.444Z,52224
2017-08-29T15:38:41.069Z,48800
2017-08-29T15:39:54.084Z,48160
2017-08-29T15:41:07.897Z,47840
2017-08-29T15:42:21.133Z,47328
2017-08-29T15:43:33.839Z,47072
2017-08-29T15:44:46.532Z,46496
2017-08-29T15:45:59.265Z,46560
2017-08-29T15:47:12.486Z,46272
2017-08-29T15:48:25.198Z,46176
2017-08-29T15:49:37.369Z,45696
2017-08-29T15:50:50.089Z,45888
2017-08-29T15:52:02.799Z,45600
2017-08-29T15:53:14.973Z,45984
2017-08-29T15:54:28.807Z,46176
2017-08-29T15:55:41.498Z,45824
2017-08-29T15:56:55.275Z,45920
2017-08-29T15:58:08.520Z,45600
2017-08-29T15:59:21.103Z,45984
2017-08-29T16:00:34.291Z,45696
2017-08-29T16:01:47.111Z,45376
2017-08-29T16:02:59.791Z,45152
2017-08-29T16:04:12.463Z,45568
2017-08-29T16:05:25.672Z,44960
2017-08-29T16:06:38.898Z,44928
2017-08-29T16:07:51.572Z,45152
2017-08-29T16:09:04.771Z,45600
2017-08-29T16:10:16.412Z,45024
2017-08-29T16:11:29.116Z,44096
2017-08-29T16:12:42.343Z,43968
2017-08-29T16:13:55.533Z,43744
2017-08-29T16:15:07.724Z,43776
2017-08-29T16:16:20.517Z,43872
2017-08-29T16:17:33.235Z,43776
2017-08-29T16:18:46.435Z,43136
2017-08-29T16:19:58.636Z,43264
2017-08-29T16:21:11.367Z,43392
2017-08-29T16:22:23.524Z,43296
2017-08-29T16:23:36.736Z,43136
2017-08-29T16:24:48.935Z,43424
2017-08-29T16:26:01.603Z,42496
2017-08-29T16:27:13.824Z,42432
2017-08-29T16:28:26.502Z,41920
2017-08-29T16:29:39.677Z,41536
2017-08-29T16:30:51.866Z,41376
2017-08-29T16:32:04.590Z,41696
2017-08-29T16:33:17.787Z,41472
2017-08-29T16:34:31.005Z,41408
2017-08-29T16:35:44.219Z,41632
2017-08-29T16:36:56.394Z,41536
2017-08-29T16:38:09.089Z,41632
2017-08-29T16:39:22.316Z,41696
2017-08-29T16:40:35.558Z,41600
2017-08-29T16:41:48.254Z,41344
2017-08-29T16:43:00.389Z,41344
2017-08-29T16:44:12.610Z,41472
2017-08-29T16:45:24.297Z,41120
2017-08-29T16:46:37.523Z,41152
2017-08-29T16:47:50.699Z,41376
2017-08-29T16:49:03.416Z,42080
2017-08-29T16:50:16.101Z,42304
2017-08-29T16:51:28.799Z,42272
2017-08-29T16:52:41.983Z,43840
2017-08-29T16:53:54.158Z,45664
2017-08-29T16:55:05.847Z,47424
2017-08-29T16:56:19.074Z,45344
2017-08-29T16:57:31.781Z,44320
2017-08-29T16:58:44.514Z,45408
2017-08-29T16:59:57.636Z,43392
2017-08-29T17:01:09.826Z,42272
2017-08-29T17:02:22.614Z,42688
2017-08-29T17:03:36.520Z,41664
2017-08-29T17:04:49.745Z,41248
2017-08-29T17:06:02.955Z,40320
2017-08-29T17:07:16.212Z,40800
2017-08-29T17:08:29.449Z,40864
2017-08-29T17:09:42.160Z,41408
2017-08-29T17:10:54.861Z,41088
2017-08-29T17:12:08.063Z,40064
2017-08-29T17:13:21.313Z,39584
2017-08-29T17:14:34.568Z,39456
2017-08-29T17:15:47.286Z,39680
2017-08-29T17:17:00.491Z,40256
2017-08-29T17:18:14.311Z,41472
2017-08-29T17:19:27.525Z,39840
2017-08-29T17:20:40.217Z,38784
2017-08-29T17:21:54.007Z,38816
2017-08-29T17:23:06.710Z,38464
2017-08-29T17:24:19.942Z,38496
2017-08-29T17:25:32.616Z,37888
2017-08-29T17:26:45.338Z,37696
2017-08-29T17:27:58.576Z,37408
2017-08-29T17:29:10.746Z,37440
2017-08-29T17:30:23.475Z,37888
2017-08-29T17:31:35.662Z,38016
2017-08-29T17:32:48.395Z,38528
2017-08-29T17:34:01.596Z,39296
2017-08-29T17:35:13.761Z,40096
2017-08-29T17:36:26.975Z,42848